sensor_id;sensor_type;location;lat;lon;timestamp;P1;durP1;ratioP1;P2;durP2;ratioP2
64795;SDS011;51229;51.980;6.722;2023-03-31T00:01:58;7.65;;;1.90;;
64795;SDS011;51229;51.980;6.722;2023-03-31T00:04:26;7.78;;;2.28;;
64795;SDS011;51229;51.980;6.722;2023-03-31T00:06:52;6.72;;;2.05;;
64795;SDS011;51229;51.980;6.722;2023-03-31T00:09:19;7.22;;;1.83;;
64795;SDS011;51229;51.980;6.722;2023-03-31T00:11:49;9.02;;;2.28;;
64795;SDS011;51229;51.980;6.722;2023-03-31T00:14:16;7.30;;;1.83;;
64795;SDS011;51229;51.980;6.722;2023-03-31T00:16:43;7.15;;;1.98;;
64795;SDS011;51229;51.980;6.722;2023-03-31T00:19:10;5.43;;;1.75;;
64795;SDS011;51229;51.980;6.722;2023-03-31T00:21:44;8.80;;;2.50;;
64795;SDS011;51229;51.980;6.722;2023-03-31T00:24:12;7.70;;;1.83;;
64795;SDS011;51229;51.980;6.722;2023-03-31T00:26:38;9.27;;;2.33;;
64795;SDS011;51229;51.980;6.722;2023-03-31T00:29:05;9.15;;;2.25;;
64795;SDS011;51229;51.980;6.722;2023-03-31T00:31:32;7.05;;;2.20;;
64795;SDS011;51229;51.980;6.722;2023-03-31T00:33:59;6.97;;;1.70;;
64795;SDS011;51229;51.980;6.722;2023-03-31T00:36:25;5.80;;;1.40;;
64795;SDS011;51229;51.980;6.722;2023-03-31T00:39:02;6.05;;;2.13;;
64795;SDS011;51229;51.980;6.722;2023-03-31T00:41:34;9.13;;;2.13;;
64795;SDS011;51229;51.980;6.722;2023-03-31T00:46:37;7.30;;;1.80;;
64795;SDS011;51229;51.980;6.722;2023-03-31T00:49:36;5.80;;;2.00;;
64795;SDS011;51229;51.980;6.722;2023-03-31T00:55:11;5.18;;;2.17;;
64795;SDS011;51229;51.980;6.722;2023-03-31T00:57:40;6.93;;;2.10;;
64795;SDS011;51229;51.980;6.722;2023-03-31T01:00:10;7.85;;;1.80;;
64795;SDS011;51229;51.980;6.722;2023-03-31T01:02:40;7.03;;;2.08;;
64795;SDS011;51229;51.980;6.722;2023-03-31T01:05:15;5.25;;;1.80;;
64795;SDS011;51229;51.980;6.722;2023-03-31T01:07:47;6.80;;;2.00;;
64795;SDS011;51229;51.980;6.722;2023-03-31T01:10:15;6.50;;;1.80;;
64795;SDS011;51229;51.980;6.722;2023-03-31T01:12:41;6.75;;;2.10;;
64795;SDS011;51229;51.980;6.722;2023-03-31T01:15:09;3.63;;;1.80;;
64795;SDS011;51229;51.980;6.722;2023-03-31T01:17:36;7.15;;;2.05;;
64795;SDS011;51229;51.980;6.722;2023-03-31T01:20:04;8.45;;;2.38;;
64795;SDS011;51229;51.980;6.722;2023-03-31T01:25:48;8.95;;;2.20;;
64795;SDS011;51229;51.980;6.722;2023-03-31T01:47:39;8.23;;;2.10;;
64795;SDS011;51229;51.980;6.722;2023-03-31T01:50:15;5.82;;;2.15;;
64795;SDS011;51229;51.980;6.722;2023-03-31T01:55:38;8.20;;;2.97;;
64795;SDS011;51229;51.980;6.722;2023-03-31T01:58:36;9.65;;;2.70;;
64795;SDS011;51229;51.980;6.722;2023-03-31T02:01:12;6.28;;;2.17;;
64795;SDS011;51229;51.980;6.722;2023-03-31T02:03:47;11.82;;;2.85;;
64795;SDS011;51229;51.980;6.722;2023-03-31T02:06:19;7.30;;;2.53;;
64795;SDS011;51229;51.980;6.722;2023-03-31T02:08:50;8.00;;;2.80;;
64795;SDS011;51229;51.980;6.722;2023-03-31T02:11:23;11.88;;;2.35;;
64795;SDS011;51229;51.980;6.722;2023-03-31T02:13:50;8.75;;;2.10;;
64795;SDS011;51229;51.980;6.722;2023-03-31T02:16:22;6.40;;;2.03;;
64795;SDS011;51229;51.980;6.722;2023-03-31T02:18:52;8.65;;;2.40;;
64795;SDS011;51229;51.980;6.722;2023-03-31T02:21:33;5.88;;;2.13;;
64795;SDS011;51229;51.980;6.722;2023-03-31T02:24:06;6.65;;;2.70;;
64795;SDS011;51229;51.980;6.722;2023-03-31T02:26:37;8.25;;;2.22;;
64795;SDS011;51229;51.980;6.722;2023-03-31T02:29:07;9.48;;;2.70;;
64795;SDS011;51229;51.980;6.722;2023-03-31T02:31:46;5.35;;;1.92;;
64795;SDS011;51229;51.980;6.722;2023-03-31T02:34:20;7.13;;;2.17;;
64795;SDS011;51229;51.980;6.722;2023-03-31T02:36:46;6.88;;;2.33;;
64795;SDS011;51229;51.980;6.722;2023-03-31T02:39:18;6.03;;;2.10;;
64795;SDS011;51229;51.980;6.722;2023-03-31T02:41:48;8.55;;;2.90;;
64795;SDS011;51229;51.980;6.722;2023-03-31T02:44:14;7.72;;;2.55;;
64795;SDS011;51229;51.980;6.722;2023-03-31T02:46:43;5.18;;;2.10;;
64795;SDS011;51229;51.980;6.722;2023-03-31T02:49:09;6.90;;;2.30;;
64795;SDS011;51229;51.980;6.722;2023-03-31T03:08:18;8.10;;;2.33;;
64795;SDS011;51229;51.980;6.722;2023-03-31T03:13:51;6.40;;;1.80;;
64795;SDS011;51229;51.980;6.722;2023-03-31T03:16:42;5.43;;;1.90;;
64795;SDS011;51229;51.980;6.722;2023-03-31T03:19:16;7.90;;;1.88;;
64795;SDS011;51229;51.980;6.722;2023-03-31T03:21:46;7.72;;;1.92;;
64795;SDS011;51229;51.980;6.722;2023-03-31T03:24:15;6.60;;;1.95;;
64795;SDS011;51229;51.980;6.722;2023-03-31T03:26:42;6.30;;;1.77;;
64795;SDS011;51229;51.980;6.722;2023-03-31T03:29:09;9.02;;;2.35;;
64795;SDS011;51229;51.980;6.722;2023-03-31T03:31:39;7.30;;;1.83;;
64795;SDS011;51229;51.980;6.722;2023-03-31T03:34:05;12.57;;;2.13;;
64795;SDS011;51229;51.980;6.722;2023-03-31T03:36:31;6.43;;;2.25;;
64795;SDS011;51229;51.980;6.722;2023-03-31T03:38:57;9.60;;;2.20;;
64795;SDS011;51229;51.980;6.722;2023-03-31T03:41:23;8.65;;;2.55;;
64795;SDS011;51229;51.980;6.722;2023-03-31T03:43:48;9.15;;;2.28;;
64795;SDS011;51229;51.980;6.722;2023-03-31T03:46:14;12.55;;;2.40;;
64795;SDS011;51229;51.980;6.722;2023-03-31T03:48:40;12.00;;;3.42;;
64795;SDS011;51229;51.980;6.722;2023-03-31T03:51:05;10.95;;;2.58;;
64795;SDS011;51229;51.980;6.722;2023-03-31T03:53:31;8.32;;;2.67;;
64795;SDS011;51229;51.980;6.722;2023-03-31T03:55:57;10.95;;;2.75;;
64795;SDS011;51229;51.980;6.722;2023-03-31T03:58:23;11.90;;;2.42;;
64795;SDS011;51229;51.980;6.722;2023-03-31T04:00:49;9.75;;;3.03;;
64795;SDS011;51229;51.980;6.722;2023-03-31T04:03:15;13.52;;;2.72;;
64795;SDS011;51229;51.980;6.722;2023-03-31T04:05:41;11.43;;;2.97;;
64795;SDS011;51229;51.980;6.722;2023-03-31T04:08:06;8.85;;;2.50;;
64795;SDS011;51229;51.980;6.722;2023-03-31T04:10:33;9.18;;;2.53;;
64795;SDS011;51229;51.980;6.722;2023-03-31T04:12:59;8.32;;;2.75;;
64795;SDS011;51229;51.980;6.722;2023-03-31T04:15:25;10.40;;;2.47;;
64795;SDS011;51229;51.980;6.722;2023-03-31T04:17:51;10.73;;;2.55;;
64795;SDS011;51229;51.980;6.722;2023-03-31T04:20:18;13.32;;;2.70;;
64795;SDS011;51229;51.980;6.722;2023-03-31T04:22:44;12.07;;;2.30;;
64795;SDS011;51229;51.980;6.722;2023-03-31T04:25:15;10.18;;;2.80;;
64795;SDS011;51229;51.980;6.722;2023-03-31T04:27:44;10.57;;;2.45;;
64795;SDS011;51229;51.980;6.722;2023-03-31T04:30:14;10.10;;;2.25;;
64795;SDS011;51229;51.980;6.722;2023-03-31T04:32:57;8.55;;;2.42;;
64795;SDS011;51229;51.980;6.722;2023-03-31T04:35:25;7.30;;;2.17;;
64795;SDS011;51229;51.980;6.722;2023-03-31T04:37:52;11.13;;;3.10;;
64795;SDS011;51229;51.980;6.722;2023-03-31T04:40:23;11.23;;;2.30;;
64795;SDS011;51229;51.980;6.722;2023-03-31T04:42:49;7.35;;;2.22;;
64795;SDS011;51229;51.980;6.722;2023-03-31T04:45:15;11.30;;;2.33;;
64795;SDS011;51229;51.980;6.722;2023-03-31T04:47:41;12.55;;;2.65;;
64795;SDS011;51229;51.980;6.722;2023-03-31T04:50:07;9.90;;;2.67;;
64795;SDS011;51229;51.980;6.722;2023-03-31T04:52:35;11.05;;;2.70;;
64795;SDS011;51229;51.980;6.722;2023-03-31T04:55:01;10.45;;;3.47;;
64795;SDS011;51229;51.980;6.722;2023-03-31T04:57:26;9.68;;;2.40;;
64795;SDS011;51229;51.980;6.722;2023-03-31T04:59:52;10.15;;;2.80;;
64795;SDS011;51229;51.980;6.722;2023-03-31T05:02:18;10.50;;;2.65;;
64795;SDS011;51229;51.980;6.722;2023-03-31T05:04:50;11.30;;;2.60;;
64795;SDS011;51229;51.980;6.722;2023-03-31T05:07:17;13.50;;;2.72;;
64795;SDS011;51229;51.980;6.722;2023-03-31T05:09:43;14.27;;;4.28;;
64795;SDS011;51229;51.980;6.722;2023-03-31T05:12:09;14.20;;;3.65;;
64795;SDS011;51229;51.980;6.722;2023-03-31T05:14:35;12.13;;;3.25;;
64795;SDS011;51229;51.980;6.722;2023-03-31T05:17:01;10.93;;;3.30;;
64795;SDS011;51229;51.980;6.722;2023-03-31T05:19:26;9.82;;;3.50;;
64795;SDS011;51229;51.980;6.722;2023-03-31T05:21:52;16.27;;;3.47;;
64795;SDS011;51229;51.980;6.722;2023-03-31T05:24:18;11.13;;;2.78;;
64795;SDS011;51229;51.980;6.722;2023-03-31T05:26:43;9.35;;;2.65;;
64795;SDS011;51229;51.980;6.722;2023-03-31T05:29:17;8.85;;;2.70;;
64795;SDS011;51229;51.980;6.722;2023-03-31T05:31:43;11.80;;;2.88;;
64795;SDS011;51229;51.980;6.722;2023-03-31T05:34:09;13.40;;;2.78;;
64795;SDS011;51229;51.980;6.722;2023-03-31T05:36:34;13.05;;;2.95;;
64795;SDS011;51229;51.980;6.722;2023-03-31T05:39:02;10.98;;;2.38;;
64795;SDS011;51229;51.980;6.722;2023-03-31T05:41:32;5.50;;;1.63;;
64795;SDS011;51229;51.980;6.722;2023-03-31T05:43:58;0.35;;;0.10;;
64795;SDS011;51229;51.980;6.722;2023-03-31T05:46:24;0.00;;;0.00;;
64795;SDS011;51229;51.980;6.722;2023-03-31T05:48:51;0.20;;;0.20;;
64795;SDS011;51229;51.980;6.722;2023-03-31T05:51:16;0.00;;;0.00;;
64795;SDS011;51229;51.980;6.722;2023-03-31T05:53:42;1.95;;;1.10;;
64795;SDS011;51229;51.980;6.722;2023-03-31T05:56:08;0.00;;;0.00;;
64795;SDS011;51229;51.980;6.722;2023-03-31T05:58:35;0.00;;;0.00;;
64795;SDS011;51229;51.980;6.722;2023-03-31T06:01:02;0.10;;;0.10;;
64795;SDS011;51229;51.980;6.722;2023-03-31T06:03:33;0.20;;;0.20;;
64795;SDS011;51229;51.980;6.722;2023-03-31T06:06:00;0.00;;;0.00;;
64795;SDS011;51229;51.980;6.722;2023-03-31T06:08:27;0.00;;;0.00;;
64795;SDS011;51229;51.980;6.722;2023-03-31T06:10:53;0.00;;;0.00;;
64795;SDS011;51229;51.980;6.722;2023-03-31T06:13:19;0.00;;;0.00;;
64795;SDS011;51229;51.980;6.722;2023-03-31T06:15:52;0.10;;;0.10;;
64795;SDS011;51229;51.980;6.722;2023-03-31T06:18:19;0.45;;;0.45;;
64795;SDS011;51229;51.980;6.722;2023-03-31T06:20:44;0.00;;;0.00;;
64795;SDS011;51229;51.980;6.722;2023-03-31T06:23:10;0.00;;;0.00;;
64795;SDS011;51229;51.980;6.722;2023-03-31T06:25:39;0.00;;;0.00;;
64795;SDS011;51229;51.980;6.722;2023-03-31T06:28:05;0.15;;;0.05;;
64795;SDS011;51229;51.980;6.722;2023-03-31T06:30:31;2.40;;;1.95;;
64795;SDS011;51229;51.980;6.722;2023-03-31T06:32:57;13.95;;;4.07;;
64795;SDS011;51229;51.980;6.722;2023-03-31T06:35:23;0.00;;;0.00;;
64795;SDS011;51229;51.980;6.722;2023-03-31T06:37:49;0.00;;;0.00;;
64795;SDS011;51229;51.980;6.722;2023-03-31T06:40:15;0.00;;;0.00;;
64795;SDS011;51229;51.980;6.722;2023-03-31T06:42:40;13.82;;;3.95;;
64795;SDS011;51229;51.980;6.722;2023-03-31T06:45:06;14.80;;;3.78;;
64795;SDS011;51229;51.980;6.722;2023-03-31T06:47:32;10.82;;;3.63;;
64795;SDS011;51229;51.980;6.722;2023-03-31T06:49:58;8.90;;;3.17;;
64795;SDS011;51229;51.980;6.722;2023-03-31T06:52:24;10.73;;;3.25;;
64795;SDS011;51229;51.980;6.722;2023-03-31T06:54:49;12.35;;;2.97;;
64795;SDS011;51229;51.980;6.722;2023-03-31T06:57:15;8.73;;;2.58;;
64795;SDS011;51229;51.980;6.722;2023-03-31T06:59:41;8.88;;;2.92;;
64795;SDS011;51229;51.980;6.722;2023-03-31T07:02:08;6.65;;;1.95;;
64795;SDS011;51229;51.980;6.722;2023-03-31T07:04:34;8.45;;;2.58;;
64795;SDS011;51229;51.980;6.722;2023-03-31T07:07:00;11.52;;;2.80;;
64795;SDS011;51229;51.980;6.722;2023-03-31T07:09:26;6.93;;;2.42;;
64795;SDS011;51229;51.980;6.722;2023-03-31T07:11:51;5.93;;;1.80;;
64795;SDS011;51229;51.980;6.722;2023-03-31T07:14:17;0.00;;;0.00;;
64795;SDS011;51229;51.980;6.722;2023-03-31T07:16:43;1.27;;;0.55;;
64795;SDS011;51229;51.980;6.722;2023-03-31T07:19:08;0.00;;;0.00;;
64795;SDS011;51229;51.980;6.722;2023-03-31T07:21:35;0.00;;;0.00;;
64795;SDS011;51229;51.980;6.722;2023-03-31T07:24:01;0.10;;;0.10;;
64795;SDS011;51229;51.980;6.722;2023-03-31T07:26:28;0.00;;;0.00;;
64795;SDS011;51229;51.980;6.722;2023-03-31T07:28:54;0.03;;;0.03;;
64795;SDS011;51229;51.980;6.722;2023-03-31T07:31:21;0.65;;;0.65;;
64795;SDS011;51229;51.980;6.722;2023-03-31T07:33:47;0.00;;;0.00;;
64795;SDS011;51229;51.980;6.722;2023-03-31T07:36:12;0.10;;;0.10;;
64795;SDS011;51229;51.980;6.722;2023-03-31T07:38:39;0.00;;;0.00;;
64795;SDS011;51229;51.980;6.722;2023-03-31T07:41:09;0.30;;;0.08;;
64795;SDS011;51229;51.980;6.722;2023-03-31T07:43:38;4.85;;;1.83;;
64795;SDS011;51229;51.980;6.722;2023-03-31T07:46:04;0.10;;;0.05;;
64795;SDS011;51229;51.980;6.722;2023-03-31T07:48:32;0.00;;;0.00;;
64795;SDS011;51229;51.980;6.722;2023-03-31T07:50:58;0.15;;;0.15;;
64795;SDS011;51229;51.980;6.722;2023-03-31T07:53:30;0.00;;;0.00;;
64795;SDS011;51229;51.980;6.722;2023-03-31T07:55:56;6.40;;;2.08;;
64795;SDS011;51229;51.980;6.722;2023-03-31T07:58:22;6.05;;;2.10;;
64795;SDS011;51229;51.980;6.722;2023-03-31T08:00:47;0.00;;;0.00;;
64795;SDS011;51229;51.980;6.722;2023-03-31T08:03:13;0.00;;;0.00;;
64795;SDS011;51229;51.980;6.722;2023-03-31T08:05:39;0.00;;;0.00;;
64795;SDS011;51229;51.980;6.722;2023-03-31T08:08:05;0.00;;;0.00;;
64795;SDS011;51229;51.980;6.722;2023-03-31T08:10:31;0.00;;;0.00;;
64795;SDS011;51229;51.980;6.722;2023-03-31T08:12:56;0.00;;;0.00;;
64795;SDS011;51229;51.980;6.722;2023-03-31T08:15:22;0.00;;;0.00;;
64795;SDS011;51229;51.980;6.722;2023-03-31T08:17:48;0.00;;;0.00;;
64795;SDS011;51229;51.980;6.722;2023-03-31T08:20:14;0.00;;;0.00;;
64795;SDS011;51229;51.980;6.722;2023-03-31T08:22:40;0.00;;;0.00;;
64795;SDS011;51229;51.980;6.722;2023-03-31T08:25:06;0.00;;;0.00;;
64795;SDS011;51229;51.980;6.722;2023-03-31T08:27:33;0.00;;;0.00;;
64795;SDS011;51229;51.980;6.722;2023-03-31T08:30:03;0.00;;;0.00;;
64795;SDS011;51229;51.980;6.722;2023-03-31T08:32:33;0.00;;;0.00;;
64795;SDS011;51229;51.980;6.722;2023-03-31T08:34:59;0.13;;;0.10;;
64795;SDS011;51229;51.980;6.722;2023-03-31T08:37:25;0.00;;;0.00;;
64795;SDS011;51229;51.980;6.722;2023-03-31T08:39:52;0.00;;;0.00;;
64795;SDS011;51229;51.980;6.722;2023-03-31T08:42:21;0.00;;;0.00;;
64795;SDS011;51229;51.980;6.722;2023-03-31T08:44:57;0.00;;;0.00;;
64795;SDS011;51229;51.980;6.722;2023-03-31T08:47:42;0.03;;;0.03;;
64795;SDS011;51229;51.980;6.722;2023-03-31T08:50:11;7.43;;;2.13;;
64795;SDS011;51229;51.980;6.722;2023-03-31T08:58:39;0.00;;;0.00;;
64795;SDS011;51229;51.980;6.722;2023-03-31T09:01:26;0.00;;;0.00;;
64795;SDS011;51229;51.980;6.722;2023-03-31T09:15:43;0.00;;;0.00;;
64795;SDS011;51229;51.980;6.722;2023-03-31T09:18:23;0.63;;;0.63;;
64795;SDS011;51229;51.980;6.722;2023-03-31T09:21:07;0.00;;;0.00;;
64795;SDS011;51229;51.980;6.722;2023-03-31T09:23:57;0.13;;;0.13;;
64795;SDS011;51229;51.980;6.722;2023-03-31T09:27:00;0.00;;;0.00;;
64795;SDS011;51229;51.980;6.722;2023-03-31T09:32:12;0.00;;;0.00;;
64795;SDS011;51229;51.980;6.722;2023-03-31T09:34:40;0.70;;;0.70;;
64795;SDS011;51229;51.980;6.722;2023-03-31T09:37:07;0.00;;;0.00;;
64795;SDS011;51229;51.980;6.722;2023-03-31T09:39:35;0.00;;;0.00;;
64795;SDS011;51229;51.980;6.722;2023-03-31T09:42:01;0.00;;;0.00;;
64795;SDS011;51229;51.980;6.722;2023-03-31T09:44:39;0.00;;;0.00;;
64795;SDS011;51229;51.980;6.722;2023-03-31T09:47:14;0.20;;;0.17;;
64795;SDS011;51229;51.980;6.722;2023-03-31T09:49:45;0.08;;;0.08;;
64795;SDS011;51229;51.980;6.722;2023-03-31T09:52:13;0.00;;;0.00;;
64795;SDS011;51229;51.980;6.722;2023-03-31T09:54:52;0.00;;;0.00;;
64795;SDS011;51229;51.980;6.722;2023-03-31T10:04:59;0.00;;;0.00;;
64795;SDS011;51229;51.980;6.722;2023-03-31T10:07:25;0.00;;;0.00;;
64795;SDS011;51229;51.980;6.722;2023-03-31T10:09:52;10.07;;;2.30;;
64795;SDS011;51229;51.980;6.722;2023-03-31T10:12:19;10.00;;;2.53;;
64795;SDS011;51229;51.980;6.722;2023-03-31T10:14:49;6.97;;;1.90;;
64795;SDS011;51229;51.980;6.722;2023-03-31T10:17:17;8.68;;;2.35;;
64795;SDS011;51229;51.980;6.722;2023-03-31T10:19:56;8.88;;;2.92;;
64795;SDS011;51229;51.980;6.722;2023-03-31T10:22:30;14.65;;;2.90;;
64795;SDS011;51229;51.980;6.722;2023-03-31T10:25:14;9.48;;;2.50;;
64795;SDS011;51229;51.980;6.722;2023-03-31T10:27:41;0.65;;;0.60;;
64795;SDS011;51229;51.980;6.722;2023-03-31T10:30:11;0.00;;;0.00;;
64795;SDS011;51229;51.980;6.722;2023-03-31T10:32:42;10.93;;;2.95;;
64795;SDS011;51229;51.980;6.722;2023-03-31T10:37:47;6.47;;;2.10;;
64795;SDS011;51229;51.980;6.722;2023-03-31T10:40:28;5.88;;;1.98;;
64795;SDS011;51229;51.980;6.722;2023-03-31T10:45:49;9.82;;;1.75;;
64795;SDS011;51229;51.980;6.722;2023-03-31T10:48:23;13.45;;;2.53;;
64795;SDS011;51229;51.980;6.722;2023-03-31T10:50:54;14.13;;;2.88;;
64795;SDS011;51229;51.980;6.722;2023-03-31T10:53:47;10.85;;;2.75;;
64795;SDS011;51229;51.980;6.722;2023-03-31T11:06:48;9.43;;;2.03;;
64795;SDS011;51229;51.980;6.722;2023-03-31T11:12:09;9.50;;;2.38;;
64795;SDS011;51229;51.980;6.722;2023-03-31T11:14:50;7.05;;;1.45;;
64795;SDS011;51229;51.980;6.722;2023-03-31T11:23:17;6.70;;;1.67;;
64795;SDS011;51229;51.980;6.722;2023-03-31T11:26:10;9.65;;;1.83;;
64795;SDS011;51229;51.980;6.722;2023-03-31T11:34:32;6.95;;;1.80;;
64795;SDS011;51229;51.980;6.722;2023-03-31T11:40:16;6.88;;;1.58;;
64795;SDS011;51229;51.980;6.722;2023-03-31T11:43:54;9.45;;;1.70;;
64795;SDS011;51229;51.980;6.722;2023-03-31T11:46:10;7.72;;;1.65;;
64795;SDS011;51229;51.980;6.722;2023-03-31T11:48:42;9.27;;;2.28;;
64795;SDS011;51229;51.980;6.722;2023-03-31T11:51:17;6.53;;;2.00;;
64795;SDS011;51229;51.980;6.722;2023-03-31T11:53:47;8.80;;;1.63;;
64795;SDS011;51229;51.980;6.722;2023-03-31T11:56:17;9.05;;;1.95;;
64795;SDS011;51229;51.980;6.722;2023-03-31T11:58:44;8.13;;;1.65;;
64795;SDS011;51229;51.980;6.722;2023-03-31T12:06:47;7.38;;;2.08;;
64795;SDS011;51229;51.980;6.722;2023-03-31T12:11:48;10.90;;;1.80;;
64795;SDS011;51229;51.980;6.722;2023-03-31T12:16:54;7.82;;;1.70;;
64795;SDS011;51229;51.980;6.722;2023-03-31T12:19:37;9.02;;;1.60;;
64795;SDS011;51229;51.980;6.722;2023-03-31T12:22:16;10.43;;;1.80;;
64795;SDS011;51229;51.980;6.722;2023-03-31T12:24:46;9.30;;;1.92;;
64795;SDS011;51229;51.980;6.722;2023-03-31T12:32:35;7.77;;;1.90;;
64795;SDS011;51229;51.980;6.722;2023-03-31T12:35:09;4.78;;;1.48;;
64795;SDS011;51229;51.980;6.722;2023-03-31T12:48:56;7.93;;;1.50;;
64795;SDS011;51229;51.980;6.722;2023-03-31T12:59:38;8.18;;;1.75;;
64795;SDS011;51229;51.980;6.722;2023-03-31T13:04:40;8.52;;;1.77;;
64795;SDS011;51229;51.980;6.722;2023-03-31T13:07:11;4.25;;;1.40;;
64795;SDS011;51229;51.980;6.722;2023-03-31T13:09:47;7.97;;;1.60;;
64795;SDS011;51229;51.980;6.722;2023-03-31T13:12:24;8.65;;;1.83;;
64795;SDS011;51229;51.980;6.722;2023-03-31T13:14:52;7.68;;;1.67;;
64795;SDS011;51229;51.980;6.722;2023-03-31T13:17:36;7.85;;;1.73;;
64795;SDS011;51229;51.980;6.722;2023-03-31T13:20:16;7.65;;;1.50;;
64795;SDS011;51229;51.980;6.722;2023-03-31T13:22:58;5.75;;;1.55;;
64795;SDS011;51229;51.980;6.722;2023-03-31T13:27:56;8.98;;;1.80;;
64795;SDS011;51229;51.980;6.722;2023-03-31T13:33:06;7.85;;;2.08;;
64795;SDS011;51229;51.980;6.722;2023-03-31T13:35:40;4.82;;;1.55;;
64795;SDS011;51229;51.980;6.722;2023-03-31T13:41:27;7.75;;;1.50;;
64795;SDS011;51229;51.980;6.722;2023-03-31T13:53:01;6.65;;;2.00;;
64795;SDS011;51229;51.980;6.722;2023-03-31T14:07:33;6.57;;;2.00;;
64795;SDS011;51229;51.980;6.722;2023-03-31T14:10:22;5.97;;;2.45;;
64795;SDS011;51229;51.980;6.722;2023-03-31T14:15:27;8.45;;;2.17;;
64795;SDS011;51229;51.980;6.722;2023-03-31T14:17:54;7.28;;;2.00;;
64795;SDS011;51229;51.980;6.722;2023-03-31T14:20:27;6.80;;;1.65;;
64795;SDS011;51229;51.980;6.722;2023-03-31T14:31:40;7.10;;;1.70;;
64795;SDS011;51229;51.980;6.722;2023-03-31T14:37:04;5.47;;;1.88;;
64795;SDS011;51229;51.980;6.722;2023-03-31T14:39:34;5.15;;;1.50;;
64795;SDS011;51229;51.980;6.722;2023-03-31T14:42:05;5.93;;;1.35;;
64795;SDS011;51229;51.980;6.722;2023-03-31T14:44:37;6.22;;;1.40;;
64795;SDS011;51229;51.980;6.722;2023-03-31T14:47:04;8.60;;;2.00;;
64795;SDS011;51229;51.980;6.722;2023-03-31T14:49:34;6.93;;;1.85;;
64795;SDS011;51229;51.980;6.722;2023-03-31T14:52:03;4.53;;;1.10;;
64795;SDS011;51229;51.980;6.722;2023-03-31T14:54:42;5.45;;;1.30;;
64795;SDS011;51229;51.980;6.722;2023-03-31T14:59:58;4.32;;;1.38;;
64795;SDS011;51229;51.980;6.722;2023-03-31T15:02:32;4.38;;;1.13;;
64795;SDS011;51229;51.980;6.722;2023-03-31T15:05:04;6.20;;;1.25;;
64795;SDS011;51229;51.980;6.722;2023-03-31T15:07:42;4.80;;;1.30;;
64795;SDS011;51229;51.980;6.722;2023-03-31T15:10:11;4.00;;;1.30;;
64795;SDS011;51229;51.980;6.722;2023-03-31T15:12:43;6.05;;;1.67;;
64795;SDS011;51229;51.980;6.722;2023-03-31T15:15:09;6.60;;;1.60;;
64795;SDS011;51229;51.980;6.722;2023-03-31T15:17:41;7.53;;;1.40;;
64795;SDS011;51229;51.980;6.722;2023-03-31T15:20:23;5.78;;;1.13;;
64795;SDS011;51229;51.980;6.722;2023-03-31T15:22:55;8.32;;;1.30;;
64795;SDS011;51229;51.980;6.722;2023-03-31T15:25:23;4.68;;;1.15;;
64795;SDS011;51229;51.980;6.722;2023-03-31T15:28:04;7.03;;;1.60;;
64795;SDS011;51229;51.980;6.722;2023-03-31T15:30:34;6.28;;;1.83;;
64795;SDS011;51229;51.980;6.722;2023-03-31T15:33:00;6.15;;;1.50;;
64795;SDS011;51229;51.980;6.722;2023-03-31T15:35:29;5.63;;;1.42;;
64795;SDS011;51229;51.980;6.722;2023-03-31T15:37:58;8.73;;;1.90;;
64795;SDS011;51229;51.980;6.722;2023-03-31T15:40:40;7.97;;;1.63;;
64795;SDS011;51229;51.980;6.722;2023-03-31T15:43:17;8.60;;;1.90;;
64795;SDS011;51229;51.980;6.722;2023-03-31T15:45:53;5.28;;;1.65;;
64795;SDS011;51229;51.980;6.722;2023-03-31T15:50:58;3.28;;;1.20;;
64795;SDS011;51229;51.980;6.722;2023-03-31T15:56:00;4.32;;;1.30;;
64795;SDS011;51229;51.980;6.722;2023-03-31T15:58:45;4.30;;;1.30;;
64795;SDS011;51229;51.980;6.722;2023-03-31T16:01:17;4.22;;;1.20;;
64795;SDS011;51229;51.980;6.722;2023-03-31T16:03:43;5.20;;;1.20;;
64795;SDS011;51229;51.980;6.722;2023-03-31T16:06:18;3.45;;;1.08;;
64795;SDS011;51229;51.980;6.722;2023-03-31T16:08:51;4.60;;;1.10;;
64795;SDS011;51229;51.980;6.722;2023-03-31T16:11:27;6.43;;;1.50;;
64795;SDS011;51229;51.980;6.722;2023-03-31T16:14:05;6.25;;;1.92;;
64795;SDS011;51229;51.980;6.722;2023-03-31T16:16:35;5.65;;;1.20;;
64795;SDS011;51229;51.980;6.722;2023-03-31T16:19:05;4.72;;;1.10;;
64795;SDS011;51229;51.980;6.722;2023-03-31T16:21:38;4.57;;;1.50;;
64795;SDS011;51229;51.980;6.722;2023-03-31T16:24:08;4.45;;;0.93;;
64795;SDS011;51229;51.980;6.722;2023-03-31T16:26:35;4.57;;;1.50;;
64795;SDS011;51229;51.980;6.722;2023-03-31T16:29:01;4.63;;;1.40;;
64795;SDS011;51229;51.980;6.722;2023-03-31T16:34:02;4.50;;;1.20;;
64795;SDS011;51229;51.980;6.722;2023-03-31T16:36:30;4.72;;;1.33;;
64795;SDS011;51229;51.980;6.722;2023-03-31T16:38:56;5.22;;;1.73;;
64795;SDS011;51229;51.980;6.722;2023-03-31T16:41:23;4.47;;;1.50;;
64795;SDS011;51229;51.980;6.722;2023-03-31T16:43:51;3.00;;;0.90;;
64795;SDS011;51229;51.980;6.722;2023-03-31T16:46:18;3.17;;;1.00;;
64795;SDS011;51229;51.980;6.722;2023-03-31T16:48:44;3.00;;;1.20;;
64795;SDS011;51229;51.980;6.722;2023-03-31T16:51:10;4.75;;;1.23;;
64795;SDS011;51229;51.980;6.722;2023-03-31T16:53:35;3.53;;;1.10;;
64795;SDS011;51229;51.980;6.722;2023-03-31T16:56:02;4.07;;;1.10;;
64795;SDS011;51229;51.980;6.722;2023-03-31T16:58:31;2.97;;;1.20;;
64795;SDS011;51229;51.980;6.722;2023-03-31T17:00:58;3.63;;;1.42;;
64795;SDS011;51229;51.980;6.722;2023-03-31T17:03:23;3.33;;;1.25;;
64795;SDS011;51229;51.980;6.722;2023-03-31T17:05:51;5.35;;;1.55;;
64795;SDS011;51229;51.980;6.722;2023-03-31T17:08:19;4.43;;;1.33;;
64795;SDS011;51229;51.980;6.722;2023-03-31T17:10:53;2.22;;;1.17;;
64795;SDS011;51229;51.980;6.722;2023-03-31T17:13:27;4.20;;;1.55;;
64795;SDS011;51229;51.980;6.722;2023-03-31T17:15:53;4.22;;;1.15;;
64795;SDS011;51229;51.980;6.722;2023-03-31T17:18:19;3.33;;;1.20;;
64795;SDS011;51229;51.980;6.722;2023-03-31T17:20:46;4.00;;;1.25;;
64795;SDS011;51229;51.980;6.722;2023-03-31T17:23:11;2.42;;;1.10;;
64795;SDS011;51229;51.980;6.722;2023-03-31T17:25:38;1.98;;;1.10;;
64795;SDS011;51229;51.980;6.722;2023-03-31T17:28:03;3.08;;;1.10;;
64795;SDS011;51229;51.980;6.722;2023-03-31T17:30:30;3.47;;;1.00;;
64795;SDS011;51229;51.980;6.722;2023-03-31T17:32:56;3.67;;;1.00;;
64795;SDS011;51229;51.980;6.722;2023-03-31T17:35:22;4.22;;;1.27;;
64795;SDS011;51229;51.980;6.722;2023-03-31T17:37:49;1.77;;;0.90;;
64795;SDS011;51229;51.980;6.722;2023-03-31T17:40:18;2.35;;;0.93;;
64795;SDS011;51229;51.980;6.722;2023-03-31T17:42:44;2.22;;;1.05;;
64795;SDS011;51229;51.980;6.722;2023-03-31T17:45:14;4.00;;;1.00;;
64795;SDS011;51229;51.980;6.722;2023-03-31T17:47:40;3.47;;;0.90;;
64795;SDS011;51229;51.980;6.722;2023-03-31T17:50:07;4.55;;;1.20;;
64795;SDS011;51229;51.980;6.722;2023-03-31T17:52:33;2.97;;;1.00;;
64795;SDS011;51229;51.980;6.722;2023-03-31T17:55:00;3.30;;;1.10;;
64795;SDS011;51229;51.980;6.722;2023-03-31T17:57:28;3.47;;;1.10;;
64795;SDS011;51229;51.980;6.722;2023-03-31T17:59:54;5.00;;;1.00;;
64795;SDS011;51229;51.980;6.722;2023-03-31T18:02:21;4.15;;;1.25;;
64795;SDS011;51229;51.980;6.722;2023-03-31T18:04:47;3.08;;;1.27;;
64795;SDS011;51229;51.980;6.722;2023-03-31T18:07:13;3.58;;;1.10;;
64795;SDS011;51229;51.980;6.722;2023-03-31T18:09:38;2.95;;;1.00;;
64795;SDS011;51229;51.980;6.722;2023-03-31T18:12:04;1.55;;;0.82;;
64795;SDS011;51229;51.980;6.722;2023-03-31T18:14:30;2.08;;;1.00;;
64795;SDS011;51229;51.980;6.722;2023-03-31T18:16:56;2.22;;;0.90;;
64795;SDS011;51229;51.980;6.722;2023-03-31T18:19:22;2.28;;;1.00;;
64795;SDS011;51229;51.980;6.722;2023-03-31T18:21:48;1.75;;;0.98;;
64795;SDS011;51229;51.980;6.722;2023-03-31T18:24:15;2.78;;;0.93;;
64795;SDS011;51229;51.980;6.722;2023-03-31T18:26:42;5.15;;;1.20;;